createdAt,value
2023-04-16T00:01:18.822Z,7.55
2023-04-16T00:03:47.665Z,7.56
2023-04-16T00:06:16.198Z,7.53
2023-04-16T00:08:46.835Z,7.52
2023-04-16T00:11:15.748Z,7.54
2023-04-16T00:13:45.438Z,7.48
2023-04-16T00:16:14.034Z,7.42
2023-04-16T00:18:42.401Z,7.48
2023-04-16T00:21:10.988Z,7.58
2023-04-16T00:23:39.378Z,7.57
2023-04-16T00:26:08.990Z,7.50
2023-04-16T00:28:37.569Z,7.47
2023-04-16T00:31:06.136Z,7.52
2023-04-16T00:33:34.739Z,7.52
2023-04-16T00:36:05.457Z,7.42
2023-04-16T00:38:34.156Z,7.44
2023-04-16T00:41:02.738Z,7.47
2023-04-16T00:43:32.038Z,7.47
2023-04-16T00:46:00.625Z,7.39
2023-04-16T00:48:32.078Z,7.39
2023-04-16T00:51:01.895Z,7.41
2023-04-16T00:53:30.781Z,7.41
2023-04-16T00:55:59.266Z,7.36
2023-04-16T00:58:28.158Z,7.38
2023-04-16T01:00:57.051Z,7.41
2023-04-16T01:03:27.673Z,7.40
2023-04-16T01:05:56.280Z,7.39
2023-04-16T01:08:25.877Z,7.43
2023-04-16T01:10:54.258Z,7.44
2023-04-16T01:13:22.845Z,7.44
2023-04-16T01:15:51.666Z,7.48
2023-04-16T01:18:21.487Z,7.52
2023-04-16T01:20:51.376Z,7.52
2023-04-16T01:23:20.161Z,7.48
2023-04-16T01:25:48.749Z,7.46
2023-04-16T01:28:17.535Z,7.46
2023-04-16T01:30:46.018Z,7.44
2023-04-16T01:33:41.332Z,7.42
2023-04-16T01:36:10.117Z,7.44
2023-04-16T01:38:39.211Z,7.43
2023-04-16T01:41:08.001Z,7.40
2023-04-16T01:43:38.467Z,7.44
2023-04-16T01:46:19.327Z,7.52
2023-04-16T01:48:47.790Z,7.55
2023-04-16T01:51:16.786Z,7.53
2023-04-16T01:53:46.284Z,7.53
2023-04-16T01:56:14.671Z,7.54
2023-04-16T01:58:43.260Z,7.51
2023-04-16T02:01:13.339Z,7.48
2023-04-16T02:03:42.369Z,7.51
2023-04-16T02:06:11.362Z,7.50
2023-04-16T02:08:39.845Z,7.50
2023-04-16T02:11:08.688Z,7.51
2023-04-16T02:13:37.628Z,7.55
2023-04-16T02:16:06.651Z,7.53
2023-04-16T02:18:45.069Z,7.48
2023-04-16T02:21:14.554Z,7.51
2023-04-16T02:23:46.078Z,7.57
2023-04-16T02:26:14.472Z,7.54
2023-04-16T02:28:43.263Z,7.50
2023-04-16T02:31:12.159Z,7.51
2023-04-16T02:33:45.248Z,7.53
2023-04-16T02:36:13.832Z,7.50
2023-04-16T02:38:42.208Z,7.49
2023-04-16T02:41:10.691Z,7.54
2023-04-16T02:43:39.175Z,7.57
2023-04-16T02:46:07.706Z,7.57
2023-04-16T02:48:36.349Z,7.60
2023-04-16T02:51:05.079Z,7.65
2023-04-16T02:53:33.722Z,7.67
2023-04-16T02:56:02.154Z,7.65
2023-04-16T02:58:30.890Z,7.67
2023-04-16T03:00:59.600Z,7.72
2023-04-16T03:03:28.413Z,7.73
2023-04-16T03:05:56.863Z,7.73
2023-04-16T03:08:26.868Z,7.74
2023-04-16T03:10:55.355Z,7.77
2023-04-16T03:13:23.830Z,7.79
2023-04-16T03:15:52.278Z,7.78
2023-04-16T03:18:21.006Z,7.79
2023-04-16T03:20:54.300Z,7.78
2023-04-16T03:23:23.500Z,7.76
2023-04-16T03:25:52.491Z,7.73
2023-04-16T03:28:21.468Z,7.76
2023-04-16T03:30:53.568Z,7.78
2023-04-16T03:33:23.780Z,7.78
2023-04-16T03:35:58.916Z,7.79
2023-04-16T03:38:29.754Z,7.85
2023-04-16T03:40:59.066Z,7.84
2023-04-16T03:43:27.740Z,7.84
2023-04-16T03:45:56.119Z,7.86
2023-04-16T03:48:25.016Z,7.89
2023-04-16T03:50:54.208Z,7.90
2023-04-16T03:53:23.839Z,7.85
2023-04-16T03:55:52.616Z,7.84
2023-04-16T03:58:22.034Z,7.88
2023-04-16T04:00:52.144Z,7.85
2023-04-16T04:03:21.546Z,7.83
2023-04-16T04:05:50.948Z,7.86
2023-04-16T04:08:31.817Z,7.87
2023-04-16T04:11:00.308Z,7.88
2023-04-16T04:13:29.292Z,7.89
2023-04-16T04:15:57.893Z,7.93
2023-04-16T04:18:28.306Z,7.94
2023-04-16T04:20:57.511Z,7.91
2023-04-16T04:23:28.445Z,7.91
2023-04-16T04:25:56.849Z,7.94
2023-04-16T04:28:26.439Z,7.94
2023-04-16T04:30:56.252Z,7.93
2023-04-16T04:35:24.549Z,8.01
2023-04-16T04:37:54.045Z,7.98
2023-04-16T04:40:23.043Z,7.98
2023-04-16T04:42:53.772Z,8.00
2023-04-16T04:45:25.885Z,8.01
2023-04-16T04:47:55.880Z,7.95
2023-04-16T04:50:24.345Z,7.93
2023-04-16T04:52:53.030Z,7.99
2023-04-16T04:55:21.415Z,8.04
2023-04-16T04:57:50.228Z,8.06
2023-04-16T05:00:18.785Z,8.07
2023-04-16T05:02:53.815Z,8.10
2023-04-16T05:05:22.868Z,8.09
2023-04-16T05:07:51.606Z,8.06
2023-04-16T05:10:20.001Z,8.10
2023-04-16T05:12:49.075Z,8.16
2023-04-16T05:15:17.872Z,8.17
2023-04-16T05:17:46.712Z,8.12
2023-04-16T05:20:15.361Z,8.12
2023-04-16T05:22:44.103Z,8.15
2023-04-16T05:25:12.625Z,8.14
2023-04-16T05:27:41.621Z,8.13
2023-04-16T05:30:10.930Z,8.16
2023-04-16T05:32:40.082Z,8.17
2023-04-16T05:35:09.837Z,8.18
2023-04-16T05:37:38.210Z,8.17
2023-04-16T05:40:07.443Z,8.20
2023-04-16T05:42:37.630Z,8.25
2023-04-16T05:45:07.166Z,8.29
2023-04-16T05:47:36.136Z,8.33
2023-04-16T05:50:05.184Z,8.38
2023-04-16T05:52:33.817Z,8.36
2023-04-16T05:55:02.235Z,8.33
2023-04-16T05:57:30.979Z,8.36
2023-04-16T05:59:59.366Z,8.39
2023-04-16T06:02:28.199Z,8.41
2023-04-16T06:04:56.833Z,8.38
2023-04-16T06:07:25.626Z,8.39
2023-04-16T06:09:54.214Z,8.43
2023-04-16T06:12:22.699Z,8.44
2023-04-16T06:14:51.394Z,8.45
2023-04-16T06:17:20.263Z,8.51
2023-04-16T06:19:48.592Z,8.57
2023-04-16T06:22:18.158Z,8.61
2023-04-16T06:24:46.848Z,8.63
2023-04-16T06:27:15.332Z,8.69
2023-04-16T06:29:43.820Z,8.75
2023-04-16T06:32:12.192Z,8.76
2023-04-16T06:34:41.803Z,8.81
2023-04-16T06:37:10.807Z,8.88
2023-04-16T06:39:39.282Z,8.92
2023-04-16T06:42:08.065Z,8.96
2023-04-16T06:44:36.757Z,9.02
2023-04-16T06:47:05.674Z,9.09
2023-04-16T06:49:34.029Z,9.17
2023-04-16T06:52:05.686Z,9.21
2023-04-16T06:54:34.672Z,9.23
2023-04-16T06:57:03.054Z,9.29
2023-04-16T06:59:32.692Z,9.35
2023-04-16T07:02:01.712Z,9.42
2023-04-16T07:04:30.756Z,9.40
2023-04-16T07:06:59.137Z,9.33
2023-04-16T07:09:27.723Z,9.39
2023-04-16T07:11:56.311Z,9.46
2023-04-16T07:14:24.690Z,9.48
2023-04-16T07:16:53.417Z,9.46
2023-04-16T07:19:21.958Z,9.48
2023-04-16T07:21:50.752Z,9.45
2023-04-16T07:24:19.129Z,9.43
2023-04-16T07:26:47.610Z,9.42
2023-04-16T07:29:15.890Z,9.43
2023-04-16T07:31:45.614Z,9.44
2023-04-16T07:34:13.980Z,9.40
2023-04-16T07:36:42.463Z,9.40
2023-04-16T07:39:11.865Z,9.51
2023-04-16T07:41:41.386Z,9.64
2023-04-16T07:44:09.770Z,9.78
2023-04-16T07:46:46.941Z,9.88
2023-04-16T07:49:16.147Z,10.02
2023-04-16T07:51:44.722Z,10.15
2023-04-16T07:54:13.224Z,10.23
2023-04-16T07:56:41.795Z,10.28
2023-04-16T07:59:22.139Z,10.31
2023-04-16T08:01:52.940Z,10.32
2023-04-16T08:04:25.678Z,10.26
2023-04-16T08:06:54.775Z,10.21
2023-04-16T08:09:24.004Z,10.17
2023-04-16T08:11:52.544Z,10.24
2023-04-16T08:14:21.454Z,10.29
2023-04-16T08:16:50.041Z,10.27
2023-04-16T08:19:18.921Z,10.20
2023-04-16T08:21:47.508Z,10.17
2023-04-16T08:24:15.990Z,10.15
2023-04-16T08:26:44.375Z,10.15
2023-04-16T08:29:12.930Z,10.10
2023-04-16T08:31:41.774Z,10.05
2023-04-16T08:34:11.782Z,9.99
2023-04-16T08:36:41.377Z,9.89
2023-04-16T08:39:10.093Z,9.81
2023-04-16T08:41:39.816Z,9.82
2023-04-16T08:44:09.168Z,9.84
2023-04-16T08:46:38.136Z,9.79
2023-04-16T08:49:07.216Z,9.72
2023-04-16T08:51:36.358Z,9.73
2023-04-16T08:54:12.469Z,9.76
2023-04-16T08:56:42.841Z,9.73
2023-04-16T08:59:12.503Z,9.65
2023-04-16T09:01:42.204Z,9.66
2023-04-16T09:04:11.278Z,9.74
2023-04-16T09:06:41.695Z,9.73
2023-04-16T09:09:10.254Z,9.69
2023-04-16T09:11:39.887Z,9.74
2023-04-16T09:14:10.016Z,9.80
2023-04-16T09:16:38.695Z,9.83
2023-04-16T09:19:08.026Z,9.83
2023-04-16T09:21:37.205Z,9.88
2023-04-16T09:24:05.678Z,9.96
2023-04-16T09:26:34.874Z,10.00
2023-04-16T09:29:03.473Z,10.01
2023-04-16T09:31:31.775Z,10.03
2023-04-16T09:34:08.735Z,10.00
2023-04-16T09:36:39.052Z,9.96
2023-04-16T09:39:07.568Z,9.94
2023-04-16T09:41:39.882Z,9.94
2023-04-16T09:44:08.406Z,9.90
2023-04-16T09:46:41.297Z,9.85
2023-04-16T09:49:11.047Z,9.82
2023-04-16T09:51:49.834Z,9.79
2023-04-16T09:54:18.203Z,9.72
2023-04-16T09:56:47.085Z,9.63
2023-04-16T09:59:19.512Z,9.64
2023-04-16T10:01:49.946Z,9.66
2023-04-16T10:04:18.578Z,9.63
2023-04-16T10:07:04.191Z,9.64
2023-04-16T10:09:37.659Z,9.68
2023-04-16T10:12:07.061Z,9.65
2023-04-16T10:14:35.973Z,9.64
2023-04-16T10:17:06.624Z,9.68
2023-04-16T10:19:35.888Z,9.69
2023-04-16T10:22:05.261Z,9.67
2023-04-16T10:24:34.694Z,9.62
2023-04-16T10:27:03.283Z,9.62
2023-04-16T10:29:31.983Z,9.64
2023-04-16T10:32:00.857Z,9.63
2023-04-16T10:34:29.646Z,9.64
2023-04-16T10:36:58.031Z,9.69
2023-04-16T10:39:28.077Z,9.74
2023-04-16T10:42:09.297Z,9.77
2023-04-16T10:44:37.812Z,9.75
2023-04-16T10:47:13.569Z,9.76
2023-04-16T10:49:42.757Z,9.80
2023-04-16T10:52:17.478Z,9.85
2023-04-16T10:54:46.954Z,9.88
2023-04-16T10:57:18.544Z,9.92
2023-04-16T10:59:47.031Z,9.92
2023-04-16T11:02:17.173Z,9.90
2023-04-16T11:04:46.488Z,9.90
2023-04-16T11:07:18.624Z,9.91
2023-04-16T11:10:00.516Z,9.92
2023-04-16T11:12:29.616Z,9.96
2023-04-16T11:15:02.287Z,9.98
2023-04-16T11:17:36.701Z,10.03
2023-04-16T11:20:19.864Z,10.03
2023-04-16T11:22:53.853Z,9.99
2023-04-16T11:25:34.359Z,9.97
2023-04-16T11:28:02.901Z,10.06
2023-04-16T11:30:36.098Z,10.11
2023-04-16T11:33:06.046Z,10.01
2023-04-16T11:35:36.140Z,9.98
2023-04-16T11:38:07.719Z,9.95
2023-04-16T11:40:36.593Z,9.95
2023-04-16T11:43:13.666Z,9.93
2023-04-16T11:46:05.334Z,9.89
2023-04-16T11:48:52.383Z,9.86
2023-04-16T11:51:22.127Z,9.90
2023-04-16T11:53:54.404Z,9.94
2023-04-16T11:56:28.661Z,9.96
2023-04-16T11:59:19.224Z,9.94
2023-04-16T12:01:52.667Z,9.92
2023-04-16T12:04:25.197Z,9.88
2023-04-16T12:07:13.020Z,9.82
2023-04-16T12:09:42.892Z,9.75
2023-04-16T12:12:32.087Z,9.76
2023-04-16T12:15:04.036Z,9.72
2023-04-16T12:17:33.562Z,9.69
2023-04-16T12:20:06.363Z,9.72
2023-04-16T12:22:37.300Z,9.76
2023-04-16T12:25:11.994Z,9.72
2023-04-16T12:27:43.998Z,9.64
2023-04-16T12:30:13.262Z,9.61
2023-04-16T12:32:44.038Z,9.67
2023-04-16T12:35:12.839Z,9.66
2023-04-16T12:37:42.016Z,9.62
2023-04-16T12:40:11.177Z,9.59
2023-04-16T12:42:39.905Z,9.62
2023-04-16T12:45:09.119Z,9.62
2023-04-16T12:47:37.817Z,9.59
2023-04-16T12:50:07.426Z,9.56
2023-04-16T12:52:36.191Z,9.70
2023-04-16T12:55:05.287Z,9.74
2023-04-16T12:57:33.874Z,9.75
2023-04-16T13:00:02.368Z,9.76
2023-04-16T13:02:32.734Z,9.78
2023-04-16T13:05:01.799Z,9.79
2023-04-16T13:07:32.528Z,9.77
2023-04-16T13:10:01.213Z,9.72
2023-04-16T13:12:29.803Z,9.73
2023-04-16T13:14:58.275Z,9.77
2023-04-16T13:17:26.685Z,9.74
2023-04-16T13:19:55.238Z,9.69
2023-04-16T13:22:24.336Z,9.70
2023-04-16T13:24:53.124Z,9.68
2023-04-16T13:27:21.711Z,9.66
2023-04-16T13:29:50.095Z,9.63
2023-04-16T13:32:19.264Z,9.62
2023-04-16T13:34:47.872Z,9.62
2023-04-16T13:37:16.255Z,9.58
2023-04-16T13:39:45.877Z,9.54
2023-04-16T13:42:14.558Z,9.58
2023-04-16T13:44:42.930Z,9.66
2023-04-16T13:47:12.233Z,9.72
2023-04-16T13:49:40.721Z,9.74
2023-04-16T13:52:09.305Z,9.76
2023-04-16T13:54:38.396Z,9.76
2023-04-16T13:57:07.297Z,9.72
2023-04-16T13:59:36.591Z,9.64
2023-04-16T14:02:05.911Z,9.64
2023-04-16T14:04:34.481Z,9.66
2023-04-16T14:07:04.396Z,9.64
2023-04-16T14:09:32.775Z,9.63
2023-04-16T14:12:01.336Z,9.62
2023-04-16T14:14:30.359Z,9.66
2023-04-16T14:16:59.348Z,9.67
2023-04-16T14:19:27.730Z,9.65
2023-04-16T14:21:56.117Z,9.65
2023-04-16T14:24:24.592Z,9.66
2023-04-16T14:26:52.981Z,9.61
2023-04-16T14:29:21.380Z,9.53
2023-04-16T14:31:50.715Z,9.48
2023-04-16T14:34:19.348Z,9.46
2023-04-16T14:36:49.365Z,9.44
2023-04-16T14:39:17.847Z,9.39
2023-04-16T14:41:46.430Z,9.33
2023-04-16T14:44:14.931Z,9.32
2023-04-16T14:46:44.030Z,9.31
2023-04-16T14:49:12.733Z,9.32
2023-04-16T14:51:41.491Z,9.38
2023-04-16T14:54:09.976Z,9.42
2023-04-16T14:56:38.475Z,9.39
2023-04-16T14:59:07.042Z,9.35
2023-04-16T15:01:36.507Z,9.36
2023-04-16T15:04:05.137Z,9.40
2023-04-16T15:06:34.134Z,9.37
2023-04-16T15:09:03.534Z,9.34
2023-04-16T15:11:32.017Z,9.36
2023-04-16T15:14:00.603Z,9.37
2023-04-16T15:16:29.054Z,9.34
2023-04-16T15:18:57.786Z,9.33
2023-04-16T15:21:26.878Z,9.36
2023-04-16T15:23:55.800Z,9.37
2023-04-16T15:26:24.147Z,9.34
2023-04-16T15:28:52.636Z,9.35
2023-04-16T15:31:22.172Z,9.40
2023-04-16T15:33:51.041Z,9.39
2023-04-16T15:36:19.929Z,9.36
2023-04-16T15:38:48.304Z,9.34
2023-04-16T15:41:16.688Z,9.38
2023-04-16T15:43:45.688Z,9.36
2023-04-16T15:46:15.231Z,9.31
2023-04-16T15:48:43.692Z,9.27
2023-04-16T15:51:13.079Z,9.27
2023-04-16T15:53:41.462Z,9.25
2023-04-16T15:56:09.844Z,9.22
2023-04-16T15:58:38.740Z,9.26
2023-04-16T16:01:07.116Z,9.29
2023-04-16T16:03:38.457Z,9.25
2023-04-16T16:06:09.101Z,9.21
2023-04-16T16:08:38.711Z,9.24
2023-04-16T16:11:07.397Z,9.25
2023-04-16T16:13:39.162Z,9.21
2023-04-16T16:16:08.072Z,9.16
2023-04-16T16:18:37.260Z,9.17
2023-04-16T16:21:06.456Z,9.18
2023-04-16T16:23:35.757Z,9.14
2023-04-16T16:26:06.501Z,9.03
2023-04-16T16:28:38.087Z,8.99
2023-04-16T16:31:07.532Z,9.00
2023-04-16T16:33:37.370Z,9.01
2023-04-16T16:36:10.739Z,9.03
2023-04-16T16:38:43.041Z,9.05
2023-04-16T16:41:11.524Z,9.04
2023-04-16T16:43:39.900Z,9.00
2023-04-16T16:46:10.131Z,9.00
2023-04-16T16:48:38.541Z,9.04
2023-04-16T16:53:06.197Z,9.03
2023-04-16T16:55:35.838Z,9.01
2023-04-16T16:58:04.280Z,9.07
2023-04-16T17:00:32.648Z,9.05
2023-04-16T17:03:01.421Z,9.08
2023-04-16T17:05:30.150Z,9.07
2023-04-16T17:07:58.944Z,9.14
2023-04-16T17:10:27.397Z,9.14
2023-04-16T17:12:56.206Z,9.14
2023-04-16T17:15:24.694Z,9.10
2023-04-16T17:17:53.094Z,9.09
2023-04-16T17:20:21.671Z,9.04
2023-04-16T17:22:51.376Z,8.99
2023-04-16T17:25:20.062Z,8.97
2023-04-16T17:27:48.442Z,8.98
2023-04-16T17:30:17.138Z,8.99
2023-04-16T17:32:45.650Z,8.98
2023-04-16T17:35:14.061Z,9.02
2023-04-16T17:37:42.586Z,9.09
2023-04-16T17:40:14.565Z,9.08
2023-04-16T17:42:43.030Z,9.03
2023-04-16T17:45:11.948Z,9.00
2023-04-16T17:47:41.460Z,9.02
2023-04-16T17:50:10.730Z,8.98
2023-04-16T17:52:39.316Z,8.89
2023-04-16T17:55:08.060Z,8.91
2023-04-16T17:57:37.439Z,8.98
2023-04-16T18:00:08.254Z,9.00
2023-04-16T18:02:41.218Z,9.00
2023-04-16T18:05:10.250Z,8.98
2023-04-16T18:07:39.333Z,9.02
2023-04-16T18:10:09.034Z,9.01
2023-04-16T18:12:37.526Z,8.96
2023-04-16T18:15:07.336Z,8.96
2023-04-16T18:17:35.925Z,9.00
2023-04-16T18:20:07.375Z,9.01
2023-04-16T18:22:36.173Z,8.91
2023-04-16T18:25:05.492Z,8.81
2023-04-16T18:27:34.060Z,8.82
2023-04-16T18:30:04.464Z,8.83
2023-04-16T18:32:33.777Z,8.83
2023-04-16T18:35:02.383Z,8.85
2023-04-16T18:37:31.158Z,8.85
2023-04-16T18:39:59.952Z,8.83
2023-04-16T18:42:28.536Z,8.78
2023-04-16T18:44:57.122Z,8.80
2023-04-16T18:47:25.742Z,8.83
2023-04-16T18:49:54.191Z,8.83
2023-04-16T18:52:22.778Z,8.83
2023-04-16T18:54:51.156Z,8.88
2023-04-16T18:57:19.640Z,8.92
2023-04-16T18:59:48.535Z,8.91
2023-04-16T19:02:16.982Z,8.89
2023-04-16T19:04:45.397Z,8.89
2023-04-16T19:07:13.783Z,8.93
2023-04-16T19:09:43.417Z,8.95
2023-04-16T19:12:11.772Z,8.95
2023-04-16T19:14:40.666Z,8.98
2023-04-16T19:17:10.685Z,9.04
2023-04-16T19:19:39.071Z,9.00
2023-04-16T19:22:07.857Z,8.96
2023-04-16T19:24:36.444Z,8.99
2023-04-16T19:27:04.825Z,9.05
2023-04-16T19:29:35.065Z,9.08
2023-04-16T19:32:03.684Z,9.06
2023-04-16T19:34:33.664Z,9.01
2023-04-16T19:37:02.057Z,9.01
2023-04-16T19:39:31.953Z,9.01
2023-04-16T19:42:01.980Z,8.99
2023-04-16T19:44:30.765Z,8.97
2023-04-16T19:46:59.563Z,9.02
2023-04-16T19:49:34.603Z,9.07
2023-04-16T19:52:03.080Z,9.07
2023-04-16T19:54:33.857Z,9.04
2023-04-16T19:57:02.403Z,9.05
2023-04-16T19:59:32.520Z,9.09
2023-04-16T20:02:01.610Z,9.06
2023-04-16T20:04:30.219Z,9.00
2023-04-16T20:06:58.898Z,9.00
2023-04-16T20:09:27.273Z,9.03
2023-04-16T20:11:55.766Z,9.02
2023-04-16T20:14:24.145Z,9.00
2023-04-16T20:16:53.076Z,8.96
2023-04-16T20:19:22.333Z,8.97
2023-04-16T20:21:51.017Z,8.97
2023-04-16T20:24:19.407Z,8.96
2023-04-16T20:26:47.893Z,8.95
2023-04-16T20:29:16.775Z,8.96
2023-04-16T20:31:46.490Z,9.05
2023-04-16T20:34:14.973Z,9.04
2023-04-16T20:36:43.672Z,9.01
2023-04-16T20:39:12.820Z,9.05
2023-04-16T20:41:44.533Z,9.10
2023-04-16T20:44:18.378Z,9.08
2023-04-16T20:46:50.051Z,9.05
2023-04-16T20:49:18.778Z,9.04
2023-04-16T20:51:47.058Z,9.10
2023-04-16T20:54:15.436Z,9.18
2023-04-16T20:56:45.076Z,9.21
2023-04-16T20:59:13.741Z,9.24
2023-04-16T21:01:42.809Z,9.28
2023-04-16T21:04:11.492Z,9.34
2023-04-16T21:06:43.181Z,9.33
2023-04-16T21:09:11.924Z,9.30
2023-04-16T21:11:41.886Z,9.31
2023-04-16T21:14:10.781Z,9.33
2023-04-16T21:16:40.697Z,9.35
2023-04-16T21:19:09.345Z,9.37
2023-04-16T21:21:39.100Z,9.33
2023-04-16T21:24:07.789Z,9.24
2023-04-16T21:26:36.216Z,9.22
2023-04-16T21:29:04.760Z,9.29
2023-04-16T21:31:33.172Z,9.33
2023-04-16T21:34:01.627Z,9.34
2023-04-16T21:36:32.354Z,9.34
2023-04-16T21:39:01.143Z,9.33
2023-04-16T21:41:29.763Z,9.36
2023-04-16T21:43:58.117Z,9.39
2023-04-16T21:46:27.326Z,9.38
2023-04-16T21:48:55.701Z,9.36
2023-04-16T21:51:29.619Z,9.36
2023-04-16T21:53:58.087Z,9.36
2023-04-16T21:56:26.774Z,9.37
2023-04-16T21:58:55.055Z,9.39
2023-04-16T22:01:23.477Z,9.41
2023-04-16T22:03:52.378Z,9.44
2023-04-16T22:06:20.930Z,9.51
2023-04-16T22:08:50.316Z,9.52
2023-04-16T22:11:19.209Z,9.49
2023-04-16T22:13:48.543Z,9.45
2023-04-16T22:16:17.211Z,9.41
2023-04-16T22:18:46.529Z,9.44
2023-04-16T22:21:14.896Z,9.47
2023-04-16T22:23:43.268Z,9.43
2023-04-16T22:26:13.087Z,9.41
2023-04-16T22:28:41.869Z,9.35
2023-04-16T22:31:10.355Z,9.28
2023-04-16T22:33:38.938Z,9.36
2023-04-16T22:36:08.543Z,9.38
2023-04-16T22:38:39.094Z,9.37
2023-04-16T22:41:07.572Z,9.33
2023-04-16T22:43:37.482Z,9.30
2023-04-16T22:46:06.879Z,9.31
2023-04-16T22:48:39.074Z,9.31
2023-04-16T22:51:08.363Z,9.25
2023-04-16T22:53:37.806Z,9.20
2023-04-16T22:56:06.794Z,9.22
2023-04-16T22:58:35.240Z,9.27
2023-04-16T23:01:03.876Z,9.31
2023-04-16T23:03:32.775Z,9.31
2023-04-16T23:06:01.202Z,9.29
2023-04-16T23:08:30.507Z,9.31
2023-04-16T23:10:59.089Z,9.37
2023-04-16T23:13:27.680Z,9.40
2023-04-16T23:15:56.302Z,9.41
2023-04-16T23:18:25.768Z,9.40
2023-04-16T23:20:54.253Z,9.40
2023-04-16T23:23:22.936Z,9.42
2023-04-16T23:25:54.494Z,9.39
2023-04-16T23:28:23.082Z,9.32
2023-04-16T23:30:53.137Z,9.28
2023-04-16T23:33:21.893Z,9.27
2023-04-16T23:35:50.284Z,9.32
2023-04-16T23:38:18.861Z,9.35
2023-04-16T23:40:47.235Z,9.37
2023-04-16T23:43:16.137Z,9.35
2023-04-16T23:45:44.551Z,9.28
2023-04-16T23:48:13.196Z,9.27
2023-04-16T23:50:41.689Z,9.25
2023-04-16T23:53:10.574Z,9.22
2023-04-16T23:55:38.955Z,9.20
2023-04-16T23:58:07.337Z,9.13
